首页
METAR-TAF:

METAR-TAF

机场 :

普斯科夫, 俄罗斯

纬度: 57-47-06N, 经度: 028-23-54E, 海拔: 47米

当前天气观测

该预报发布于44分钟前的11:00 UTC
风速6节,风向南转南东,在东转东南南转西南之间变化
温度 27°C
湿度 48%
气压 1014 hPa
少量云层高于4000英尺

METAR: ULOO 201100Z 16003MPS 110V200 P5000 FEW040 27/15 Q1014 R19/090070 NOSIG RMK QFE756

时间: 14:44 (11:44 UTC)

预报

该预报发布于49分钟前的10:55 UTC
预报有效从20日的 12点(UTC)到 20日的 21点(UTC)
风速6节,风向,有时为16节阵风
能见度10公里或以上
散云层高于2000英尺
短暂存在
从 20日的 12点(UTC)到 20日的 15点(UTC)
能見度: 3100
散云层高于1100英尺
多云层高于2000英尺, 积雨云.
小阵雨
短暂存在
从 20日的 15点(UTC)到 20日的 21点(UTC)
能見度: 2500
多云层高于1100英尺
多云层高于2000英尺, 积雨云.
雷暴, 小雨

TAF: ULOO 201055Z 2012/2021 17003G08MPS 9999 SCT020 TEMPO 2012/2015 3100 -SHRA SCT011 BKN020CB TEMPO 2015/2021 2500 -TSRA BKN011 BKN020CB

超过4000个机场的气象观测和天气预报(METAR&TAF报告)。

可查询的气象台以黄色和红色小点在地图上表示。

将鼠标移到小点上方,可查看气象台名称。

然后点击查看天气观测和预报。

如需切换地图:点击带黑十字的绿色按钮放大地图;点击带横线的绿色按钮缩小地图;或者点击绿色箭头查看邻近地区的地图。


METAR-TAF: